createdAt,value
2023-04-21T00:00:43.108Z,8.50
2023-04-21T00:03:34.342Z,8.50
2023-04-21T00:06:23.622Z,8.50
2023-04-21T00:09:12.043Z,8.50
2023-04-21T00:11:59.606Z,8.50
2023-04-21T00:14:46.940Z,8.50
2023-04-21T00:17:35.212Z,8.50
2023-04-21T00:20:27.168Z,8.50
2023-04-21T00:23:17.675Z,8.60
2023-04-21T00:26:09.849Z,8.50
2023-04-21T00:29:02.171Z,8.60
2023-04-21T00:31:51.650Z,8.60
2023-04-21T00:34:39.280Z,8.50
2023-04-21T00:37:31.260Z,8.50
2023-04-21T00:40:23.922Z,8.50
2023-04-21T00:43:11.729Z,8.50
2023-04-21T00:46:02.361Z,8.50
2023-04-21T00:48:52.787Z,8.50
2023-04-21T00:51:49.234Z,8.60
2023-04-21T00:54:38.843Z,8.50
2023-04-21T00:57:26.407Z,8.50
2023-04-21T01:00:17.995Z,8.60
2023-04-21T01:03:08.365Z,8.50
2023-04-21T01:05:58.903Z,8.50
2023-04-21T01:08:54.687Z,8.50
2023-04-21T01:12:02.548Z,8.50
2023-04-21T01:14:55.042Z,8.50
2023-04-21T01:17:42.603Z,8.50
2023-04-21T01:20:30.645Z,8.50
2023-04-21T01:23:24.380Z,8.50
2023-04-21T01:26:16.495Z,8.50
2023-04-21T01:29:09.778Z,8.50
2023-04-21T01:31:59.033Z,8.50
2023-04-21T01:34:50.295Z,8.40
2023-04-21T01:37:44.104Z,8.50
2023-04-21T01:40:37.945Z,8.50
2023-04-21T01:43:30.922Z,8.50
2023-04-21T01:46:21.366Z,8.60
2023-04-21T01:49:09.789Z,8.60
2023-04-21T01:51:59.808Z,8.60
2023-04-21T01:54:47.169Z,8.60
2023-04-21T01:57:40.627Z,8.60
2023-04-21T02:00:32.291Z,8.60
2023-04-21T02:03:25.811Z,8.60
2023-04-21T02:06:15.071Z,8.60
2023-04-21T02:09:02.725Z,8.60
2023-04-21T02:11:55.140Z,8.60
2023-04-21T02:14:48.507Z,8.60
2023-04-21T02:17:43.102Z,8.60
2023-04-21T02:20:31.043Z,8.60
2023-04-21T02:23:24.364Z,8.50
2023-04-21T02:26:11.697Z,8.50
2023-04-21T02:29:02.721Z,8.40
2023-04-21T02:32:03.109Z,8.40
2023-04-21T02:35:03.584Z,8.40
2023-04-21T02:37:52.009Z,8.50
2023-04-21T02:40:39.925Z,8.40
2023-04-21T02:43:31.069Z,8.50
2023-04-21T02:46:27.781Z,8.40
2023-04-21T02:49:17.115Z,8.40
2023-04-21T02:52:06.476Z,8.50
2023-04-21T02:54:54.184Z,8.50
2023-04-21T02:57:41.623Z,8.40
2023-04-21T03:00:31.862Z,8.40
2023-04-21T03:03:19.611Z,8.40
2023-04-21T03:06:11.620Z,8.40
2023-04-21T03:09:00.187Z,8.40
2023-04-21T03:11:48.030Z,8.30
2023-04-21T03:14:39.554Z,8.40
2023-04-21T03:17:28.577Z,8.30
2023-04-21T03:20:17.264Z,8.30
2023-04-21T03:23:09.409Z,8.30
2023-04-21T03:25:59.278Z,8.30
2023-04-21T03:28:47.126Z,8.30
2023-04-21T03:31:34.383Z,8.30
2023-04-21T03:34:22.059Z,8.30
2023-04-21T03:37:12.742Z,8.30
2023-04-21T03:40:02.817Z,8.20
2023-04-21T03:42:50.324Z,8.20
2023-04-21T03:45:40.324Z,8.20
2023-04-21T03:48:29.895Z,8.10
2023-04-21T03:51:28.720Z,8.10
2023-04-21T03:54:15.766Z,8.10
2023-04-21T03:57:04.999Z,8.00
2023-04-21T03:59:56.049Z,8.00
2023-04-21T04:02:44.072Z,7.90
2023-04-21T04:05:31.754Z,7.80
2023-04-21T04:08:20.610Z,7.90
2023-04-21T04:11:11.026Z,7.80
2023-04-21T04:14:08.459Z,7.80
2023-04-21T04:16:56.021Z,7.80
2023-04-21T04:19:44.378Z,7.80
2023-04-21T04:22:31.936Z,7.70
2023-04-21T04:25:22.021Z,7.70
2023-04-21T04:28:13.062Z,7.70
2023-04-21T04:31:04.453Z,7.70
2023-04-21T04:33:54.685Z,7.70
2023-04-21T04:36:43.622Z,7.70
2023-04-21T04:39:35.049Z,7.70
2023-04-21T04:42:22.595Z,7.60
2023-04-21T04:45:17.483Z,7.70
2023-04-21T04:48:17.469Z,7.60
2023-04-21T04:51:09.719Z,7.70
2023-04-21T04:54:04.009Z,7.60
2023-04-21T04:56:57.384Z,7.60
2023-04-21T04:59:49.559Z,7.60
2023-04-21T05:02:43.247Z,7.60
2023-04-21T05:05:45.231Z,7.60
2023-04-21T05:08:38.946Z,7.60
2023-04-21T05:11:37.194Z,7.70
2023-04-21T05:14:30.095Z,7.70
2023-04-21T05:17:30.568Z,7.70
2023-04-21T05:20:20.665Z,7.70
2023-04-21T05:23:34.536Z,7.80
2023-04-21T05:26:26.544Z,7.80
2023-04-21T05:29:24.564Z,7.80
2023-04-21T05:32:20.605Z,7.90
2023-04-21T05:35:14.697Z,7.90
2023-04-21T05:38:16.548Z,8.00
2023-04-21T05:41:14.431Z,8.10
2023-04-21T05:44:09.461Z,8.10
2023-04-21T05:47:08.485Z,8.20
2023-04-21T05:50:00.641Z,8.20
2023-04-21T05:52:52.229Z,8.40
2023-04-21T05:55:46.911Z,8.40
2023-04-21T05:58:44.377Z,8.60
2023-04-21T06:01:37.938Z,8.70
2023-04-21T06:04:28.242Z,8.90
2023-04-21T06:07:22.227Z,9.10
2023-04-21T06:10:13.865Z,9.30
2023-04-21T06:13:05.939Z,9.50
2023-04-21T06:15:57.297Z,9.70
2023-04-21T06:18:46.813Z,9.80
2023-04-21T06:21:34.720Z,9.90
2023-04-21T06:24:25.773Z,10.10
2023-04-21T06:27:20.755Z,10.30
2023-04-21T06:30:15.314Z,10.40
2023-04-21T06:33:03.019Z,10.60
2023-04-21T06:35:50.458Z,10.80
2023-04-21T06:38:40.063Z,10.90
2023-04-21T06:41:27.177Z,11.10
2023-04-21T06:44:14.364Z,11.30
2023-04-21T06:47:02.945Z,11.50
2023-04-21T06:49:49.989Z,11.70
2023-04-21T06:52:37.472Z,11.90
2023-04-21T06:55:24.844Z,12.10
2023-04-21T06:58:12.504Z,12.30
2023-04-21T07:01:07.765Z,12.50
2023-04-21T07:03:57.844Z,12.60
2023-04-21T07:06:48.815Z,12.80
2023-04-21T07:09:36.696Z,12.90
2023-04-21T07:12:24.395Z,12.90
2023-04-21T07:15:16.833Z,13.00
2023-04-21T07:18:04.723Z,13.00
2023-04-21T07:20:56.933Z,13.00
2023-04-21T07:23:46.816Z,12.90
2023-04-21T07:26:34.876Z,12.80
2023-04-21T07:29:22.395Z,12.80
2023-04-21T07:32:12.092Z,12.80
2023-04-21T07:35:03.732Z,12.70
2023-04-21T07:38:02.874Z,12.70
2023-04-21T07:40:53.916Z,12.80
2023-04-21T07:43:47.584Z,12.90
2023-04-21T07:46:40.038Z,13.10
2023-04-21T07:49:33.494Z,13.40
2023-04-21T07:52:53.458Z,13.60
2023-04-21T07:55:35.676Z,13.90
2023-04-21T07:58:30.940Z,14.20
2023-04-21T08:01:21.272Z,14.50
2023-04-21T08:04:13.746Z,14.80
2023-04-21T08:07:12.334Z,15.20
2023-04-21T08:19:11.549Z,16.40
2023-04-21T08:22:04.281Z,16.90
2023-04-21T08:25:00.821Z,18.90
2023-04-21T08:27:51.206Z,19.20
2023-04-21T08:30:44.433Z,20.80
2023-04-21T08:33:46.833Z,22.50
2023-04-21T08:36:48.204Z,23.70
2023-04-21T08:39:47.692Z,23.90
2023-04-21T08:45:46.859Z,25.40
2023-04-21T08:48:43.165Z,26.70
2023-04-21T08:51:35.592Z,27.30
2023-04-21T08:54:27.488Z,27.30
2023-04-21T08:57:20.786Z,27.00
2023-04-21T09:00:15.204Z,27.80
2023-04-21T09:03:22.995Z,27.80
2023-04-21T09:06:20.650Z,27.60
2023-04-21T09:09:13.744Z,27.70
2023-04-21T09:12:11.003Z,28.50
2023-04-21T09:15:13.950Z,29.00
2023-04-21T09:18:08.084Z,28.60
2023-04-21T09:21:13.291Z,27.70
2023-04-21T09:24:10.433Z,26.30
2023-04-21T09:27:03.039Z,25.50
2023-04-21T09:29:56.819Z,26.40
2023-04-21T09:32:53.735Z,27.00
2023-04-21T09:35:46.408Z,27.30
2023-04-21T09:38:38.949Z,28.00
2023-04-21T09:41:39.383Z,28.60
2023-04-21T09:44:36.374Z,29.00
2023-04-21T09:47:39.605Z,30.10
2023-04-21T09:53:30.812Z,31.30
2023-04-21T09:56:27.492Z,31.40
2023-04-21T09:59:28.457Z,31.40
2023-04-21T10:02:31.022Z,30.80
2023-04-21T10:05:20.759Z,30.30
2023-04-21T10:08:16.035Z,30.60
2023-04-21T10:11:10.155Z,30.80
2023-04-21T10:14:01.123Z,30.10
2023-04-21T10:17:10.501Z,29.60
2023-04-21T10:20:17.709Z,29.40
2023-04-21T10:23:17.176Z,28.10
2023-04-21T10:26:27.815Z,26.40
2023-04-21T10:29:55.465Z,25.00
2023-04-21T10:33:16.932Z,23.90
2023-04-21T10:36:24.312Z,22.80
2023-04-21T10:39:37.284Z,21.80
2023-04-21T10:42:55.990Z,21.10
2023-04-21T10:46:11.387Z,20.40
2023-04-21T10:52:24.150Z,19.80
2023-04-21T10:55:20.219Z,19.80
2023-04-21T10:58:20.475Z,19.70
2023-04-21T11:01:17.028Z,19.60
2023-04-21T11:04:17.020Z,19.40
2023-04-21T11:07:12.850Z,19.30
2023-04-21T11:10:05.605Z,19.40
2023-04-21T11:13:02.445Z,19.60
2023-04-21T11:16:12.030Z,19.70
2023-04-21T11:19:02.724Z,19.60
2023-04-21T11:21:59.463Z,19.40
2023-04-21T11:24:57.698Z,19.20
2023-04-21T11:28:06.390Z,19.20
2023-04-21T11:31:06.793Z,19.20
2023-04-21T11:34:01.453Z,19.30
2023-04-21T11:36:53.218Z,19.30
2023-04-21T11:39:47.555Z,19.50
2023-04-21T11:42:43.683Z,19.50
2023-04-21T11:45:35.409Z,19.60
2023-04-21T11:48:35.917Z,19.70
2023-04-21T11:51:26.720Z,19.80
2023-04-21T11:54:24.819Z,19.90
2023-04-21T11:57:22.762Z,19.90
2023-04-21T12:00:19.070Z,20.00
2023-04-21T12:03:13.345Z,20.00
2023-04-21T12:06:09.136Z,20.00
2023-04-21T12:09:10.200Z,20.10
2023-04-21T12:12:09.274Z,20.10
2023-04-21T12:15:14.214Z,20.20
2023-04-21T12:18:08.910Z,20.40
2023-04-21T12:21:20.191Z,20.40
2023-04-21T12:24:19.900Z,20.40
2023-04-21T12:27:23.517Z,20.50
2023-04-21T12:30:14.761Z,20.50
2023-04-21T12:33:21.505Z,20.60
2023-04-21T12:39:22.667Z,20.70
2023-04-21T12:42:10.314Z,20.80
2023-04-21T12:44:58.449Z,20.90
2023-04-21T12:47:47.088Z,20.90
2023-04-21T12:50:35.183Z,21.00
2023-04-21T12:53:23.107Z,21.00
2023-04-21T12:56:12.041Z,20.90
2023-04-21T12:58:59.469Z,20.80
2023-04-21T13:01:47.117Z,20.80
2023-04-21T13:04:39.450Z,20.90
2023-04-21T13:07:34.161Z,21.10
2023-04-21T13:10:26.019Z,21.20
2023-04-21T13:13:21.187Z,21.20
2023-04-21T13:16:12.698Z,21.20
2023-04-21T13:19:06.616Z,21.20
2023-04-21T13:21:54.910Z,21.20
2023-04-21T13:24:45.670Z,21.20
2023-04-21T13:27:37.602Z,21.30
2023-04-21T13:30:26.728Z,21.40
2023-04-21T13:33:21.746Z,21.50
2023-04-21T13:36:13.733Z,21.60
2023-04-21T13:39:02.046Z,21.70
2023-04-21T13:41:54.377Z,21.70
2023-04-21T13:44:47.744Z,21.70
2023-04-21T13:47:38.469Z,21.80
2023-04-21T13:50:26.755Z,21.80
2023-04-21T13:53:17.185Z,21.90
2023-04-21T13:56:06.521Z,22.00
2023-04-21T13:58:58.061Z,22.20
2023-04-21T14:01:51.538Z,22.10
2023-04-21T14:04:41.540Z,22.20
2023-04-21T14:07:30.324Z,22.20
2023-04-21T14:10:18.686Z,22.10
2023-04-21T14:13:07.274Z,22.00
2023-04-21T14:15:55.358Z,22.10
2023-04-21T14:18:45.588Z,22.10
2023-04-21T14:21:35.435Z,22.20
2023-04-21T14:24:29.328Z,22.30
2023-04-21T14:27:23.518Z,22.40
2023-04-21T14:30:18.732Z,22.40
2023-04-21T14:33:27.260Z,22.30
2023-04-21T14:36:30.387Z,22.20
2023-04-21T14:39:33.999Z,22.10
2023-04-21T14:42:26.385Z,22.00
2023-04-21T14:45:25.834Z,22.10
2023-04-21T14:48:20.331Z,22.10
2023-04-21T14:51:36.382Z,21.90
2023-04-21T14:54:28.747Z,21.80
2023-04-21T14:57:21.266Z,21.80
2023-04-21T15:00:15.843Z,21.80
2023-04-21T15:03:12.319Z,21.80
2023-04-21T15:06:10.571Z,21.90
2023-04-21T15:09:02.497Z,22.00
2023-04-21T15:11:53.344Z,22.00
2023-04-21T15:14:41.915Z,22.10
2023-04-21T15:17:30.504Z,22.10
2023-04-21T15:20:20.813Z,22.20
2023-04-21T15:23:13.398Z,22.30
2023-04-21T15:26:01.364Z,22.30
2023-04-21T15:28:51.140Z,22.30
2023-04-21T15:31:39.113Z,22.20
2023-04-21T15:34:34.227Z,22.00
2023-04-21T15:37:27.891Z,21.90
2023-04-21T15:40:21.135Z,21.90
2023-04-21T15:43:13.880Z,21.90
2023-04-21T15:46:15.001Z,21.80
2023-04-21T15:49:11.576Z,21.80
2023-04-21T15:52:09.495Z,21.70
2023-04-21T15:55:13.913Z,21.60
2023-04-21T15:58:08.089Z,21.60
2023-04-21T16:01:04.573Z,21.50
2023-04-21T16:04:00.351Z,21.40
2023-04-21T16:07:07.701Z,21.30
2023-04-21T16:09:58.837Z,21.30
2023-04-21T16:13:03.265Z,21.30
2023-04-21T16:15:56.095Z,21.20
2023-04-21T16:18:47.130Z,21.10
2023-04-21T16:21:46.471Z,21.00
2023-04-21T16:24:40.698Z,20.90
2023-04-21T16:27:39.770Z,20.70
2023-04-21T16:30:36.614Z,20.50
2023-04-21T16:33:32.135Z,20.30
2023-04-21T16:36:29.567Z,20.10
2023-04-21T16:39:25.224Z,20.10
2023-04-21T16:42:18.956Z,20.00
2023-04-21T16:45:13.777Z,19.90
2023-04-21T16:48:04.371Z,19.90
2023-04-21T16:51:04.685Z,19.80
2023-04-21T16:53:57.264Z,19.80
2023-04-21T16:56:59.504Z,19.70
2023-04-21T16:59:55.323Z,19.70
2023-04-21T17:02:50.318Z,19.60
2023-04-21T17:05:42.967Z,19.60
2023-04-21T17:08:32.963Z,19.50
2023-04-21T17:11:38.097Z,19.40
2023-04-21T17:14:35.622Z,19.30
2023-04-21T17:17:33.837Z,19.20
2023-04-21T17:20:27.166Z,19.10
2023-04-21T17:23:23.323Z,19.10
2023-04-21T17:26:18.818Z,19.10
2023-04-21T17:29:10.384Z,19.00
2023-04-21T17:32:05.731Z,18.90
2023-04-21T17:35:07.997Z,18.80
2023-04-21T17:38:05.970Z,18.80
2023-04-21T17:40:56.177Z,18.80
2023-04-21T17:43:50.050Z,18.70
2023-04-21T17:46:45.029Z,18.70
2023-04-21T17:49:36.759Z,18.60
2023-04-21T17:52:31.400Z,18.60
2023-04-21T17:55:30.682Z,18.50
2023-04-21T17:58:23.614Z,18.50
2023-04-21T18:01:16.218Z,18.40
2023-04-21T18:04:31.031Z,18.40
2023-04-21T18:07:28.735Z,18.30
2023-04-21T18:10:22.045Z,18.20
2023-04-21T18:13:13.001Z,18.10
2023-04-21T18:16:03.151Z,18.00
2023-04-21T18:18:56.928Z,17.90
2023-04-21T18:21:53.155Z,17.80
2023-04-21T18:24:51.759Z,17.70
2023-04-21T18:27:44.693Z,17.50
2023-04-21T18:30:34.106Z,17.40
2023-04-21T18:33:27.043Z,17.20
2023-04-21T18:36:20.062Z,17.10
2023-04-21T18:39:12.908Z,16.90
2023-04-21T18:42:15.106Z,16.80
2023-04-21T19:20:36.617Z,15.60
2023-04-21T19:23:38.257Z,15.50
2023-04-21T19:26:30.158Z,15.40
2023-04-21T19:29:31.318Z,15.30
2023-04-21T19:32:28.613Z,15.20
2023-04-21T19:35:25.545Z,15.10
2023-04-21T19:38:26.473Z,15.20
2023-04-21T19:41:19.072Z,15.20
2023-04-21T19:44:17.394Z,15.20
2023-04-21T19:47:08.524Z,15.20
2023-04-21T19:50:07.767Z,15.20
2023-04-21T19:53:02.293Z,15.20
2023-04-21T19:55:52.764Z,15.20
2023-04-21T19:58:46.705Z,15.10
2023-04-21T20:01:36.309Z,15.10
2023-04-21T20:04:39.764Z,14.90
2023-04-21T20:07:30.407Z,14.90
2023-04-21T20:10:24.894Z,14.90
2023-04-21T20:13:16.219Z,14.80
2023-04-21T20:16:12.511Z,14.70
2023-04-21T20:19:05.708Z,14.70
2023-04-21T20:21:59.908Z,14.60
2023-04-21T20:24:54.448Z,14.50
2023-04-21T20:27:51.142Z,14.40
2023-04-21T20:30:43.097Z,14.40
2023-04-21T20:33:37.761Z,14.30
2023-04-21T20:36:30.644Z,14.30
2023-04-21T20:39:22.800Z,14.20
2023-04-21T20:42:19.547Z,14.20
2023-04-21T20:45:17.865Z,14.10
2023-04-21T20:48:09.106Z,14.00
2023-04-21T20:51:03.285Z,14.00
2023-04-21T20:53:52.837Z,13.90
2023-04-21T20:56:43.821Z,13.90
2023-04-21T20:59:44.693Z,13.80
2023-04-21T21:02:39.520Z,13.80
2023-04-21T21:05:35.020Z,13.70
2023-04-21T21:08:34.054Z,13.60
2023-04-21T21:11:28.198Z,13.60
2023-04-21T21:14:22.019Z,13.50
2023-04-21T21:17:13.547Z,13.50
2023-04-21T21:20:11.644Z,13.40
2023-04-21T21:23:01.270Z,13.30
2023-04-21T21:25:52.277Z,13.20
2023-04-21T21:28:43.861Z,13.10
2023-04-21T21:31:31.813Z,13.10
2023-04-21T21:34:19.446Z,13.00
2023-04-21T21:37:08.722Z,13.00
2023-04-21T21:39:56.345Z,12.90
2023-04-21T21:42:44.088Z,12.90
2023-04-21T21:45:32.159Z,12.90
2023-04-21T21:48:19.621Z,12.80
2023-04-21T21:51:07.135Z,12.80
2023-04-21T21:53:56.349Z,12.80
2023-04-21T21:56:44.993Z,12.70
2023-04-21T21:59:33.032Z,12.60
2023-04-21T22:02:20.423Z,12.60
2023-04-21T22:05:09.421Z,12.50
2023-04-21T22:07:57.096Z,12.40
2023-04-21T22:10:46.670Z,12.40
2023-04-21T22:13:34.548Z,12.30
2023-04-21T22:16:22.717Z,12.20
2023-04-21T22:19:10.765Z,12.10
2023-04-21T22:21:58.447Z,12.10
2023-04-21T22:24:46.015Z,12.00
2023-04-21T22:27:36.337Z,11.90
2023-04-21T22:30:24.164Z,11.90
2023-04-21T22:33:12.087Z,11.80
2023-04-21T22:35:59.926Z,11.80
2023-04-21T22:38:47.613Z,11.70
2023-04-21T22:41:35.409Z,11.70
2023-04-21T22:44:24.823Z,11.60
2023-04-21T22:47:13.347Z,11.60
2023-04-21T22:50:00.850Z,11.50
2023-04-21T22:52:48.938Z,11.50
2023-04-21T22:55:36.581Z,11.40
2023-04-21T22:58:24.440Z,11.40
2023-04-21T23:01:13.805Z,11.30
2023-04-21T23:04:01.612Z,11.30
2023-04-21T23:06:50.090Z,11.30
2023-04-21T23:09:38.400Z,11.30
2023-04-21T23:12:26.540Z,11.20
2023-04-21T23:15:14.138Z,11.20
2023-04-21T23:18:03.515Z,11.10
2023-04-21T23:20:50.865Z,11.10
2023-04-21T23:23:38.808Z,11.10
2023-04-21T23:26:25.988Z,11.00
2023-04-21T23:29:13.476Z,11.00
2023-04-21T23:32:01.759Z,10.90
2023-04-21T23:34:50.950Z,10.90
2023-04-21T23:37:38.775Z,10.80
2023-04-21T23:40:26.519Z,10.80
2023-04-21T23:43:14.267Z,10.70
2023-04-21T23:46:02.197Z,10.70
2023-04-21T23:48:50.002Z,10.60
2023-04-21T23:51:39.072Z,10.60
2023-04-21T23:54:26.964Z,10.50
2023-04-21T23:57:14.747Z,10.50
